Time;durP1;ratioP1;P1;durP2;ratioP2;P2;SDS_P1;SDS_P2;PMS_P1;PMS_P2;Temp;Humidity;BMP_temperature;BMP_pressure;BME280_temperature;BME280_humidity;BME280_pressure;Samples;Min_cycle;Max_cycle;Signal;HPM_P1;HPM_P2
2022/05/27 00:01:21;;;;;;;12.00;3.38;;;;;;;;;;5042737;28;20087;-51
2022/05/27 00:03:48;;;;;;;15.18;3.60;;;;;;;;;;5038971;28;20025;-50
2022/05/27 00:06:16;;;;;;;16.05;3.83;;;;;;;;;;5041176;28;20028;-50
2022/05/27 00:08:43;;;;;;;21.75;4.35;;;;;;;;;;5041405;28;20037;-48
2022/05/27 00:11:10;;;;;;;13.52;3.92;;;;;;;;;;5030520;28;20069;-51
2022/05/27 00:13:37;;;;;;;17.60;3.47;;;;;;;;;;5042409;28;20650;-52
2022/05/27 00:16:05;;;;;;;14.73;3.72;;;;;;;;;;5040043;28;20104;-51
2022/05/27 00:18:32;;;;;;;18.88;3.28;;;;;;;;;;5040466;28;20060;-51
2022/05/27 00:20:59;;;;;;;13.43;3.70;;;;;;;;;;5041471;28;20521;-54
2022/05/27 00:23:27;;;;;;;14.43;3.70;;;;;;;;;;5043933;28;20025;-51
2022/05/27 00:25:54;;;;;;;12.75;3.90;;;;;;;;;;5051589;28;20056;-53
2022/05/27 00:28:21;;;;;;;15.23;3.63;;;;;;;;;;5053244;28;20035;-50
2022/05/27 00:30:48;;;;;;;14.60;3.53;;;;;;;;;;5041644;28;20022;-50
2022/05/27 00:33:15;;;;;;;14.57;3.55;;;;;;;;;;5034547;28;20041;-50
2022/05/27 00:35:42;;;;;;;13.57;3.20;;;;;;;;;;5052225;28;20037;-52
2022/05/27 00:38:21;;;;;;;15.30;3.05;;;;;;;;;;5054870;28;20028;-52
2022/05/27 00:43:58;;;;;;;11.30;2.55;;;;;;;;;;5034131;28;20048;-48
2022/05/27 00:46:28;;;;;;;8.48;2.95;;;;;;;;;;5032244;28;20033;-53
2022/05/27 00:48:59;;;;;;;14.82;3.15;;;;;;;;;;5033061;28;20084;-49
2022/05/27 00:51:29;;;;;;;9.68;2.75;;;;;;;;;;5032680;28;20745;-51
2022/05/27 00:54:00;;;;;;;12.70;2.80;;;;;;;;;;5032280;28;20068;-51
2022/05/27 00:56:30;;;;;;;14.80;3.20;;;;;;;;;;5014535;28;20391;-49
2022/05/27 00:58:59;;;;;;;9.55;3.05;;;;;;;;;;5038634;28;20291;-50
2022/05/27 01:01:27;;;;;;;13.18;2.95;;;;;;;;;;5031316;28;20483;-54
2022/05/27 01:03:56;;;;;;;12.27;2.60;;;;;;;;;;5041128;28;20070;-47
2022/05/27 01:06:24;;;;;;;14.98;3.03;;;;;;;;;;5049411;28;20029;-49
2022/05/27 01:08:51;;;;;;;7.80;2.60;;;;;;;;;;5051110;28;20036;-49
2022/05/27 01:11:18;;;;;;;10.90;2.20;;;;;;;;;;5051302;28;20056;-50
2022/05/27 01:14:03;;;;;;;11.32;2.90;;;;;;;;;;5044612;28;20045;-50
2022/05/27 01:16:51;;;;;;;11.77;3.00;;;;;;;;;;5042352;28;20037;-54
2022/05/27 01:22:51;;;;;;;17.52;2.72;;;;;;;;;;5043166;28;20177;-53
2022/05/27 01:25:28;;;;;;;12.07;2.97;;;;;;;;;;5031578;28;20037;-52
2022/05/27 01:28:13;;;;;;;8.38;2.65;;;;;;;;;;5039258;28;20033;-47
2022/05/27 01:30:47;;;;;;;8.52;2.58;;;;;;;;;;5041729;28;20096;-50
2022/05/27 01:33:22;;;;;;;15.80;3.63;;;;;;;;;;5040279;28;20037;-49
2022/05/27 01:36:21;;;;;;;9.98;2.92;;;;;;;;;;5037302;28;20025;-55
2022/05/27 01:39:00;;;;;;;13.30;2.67;;;;;;;;;;5008955;28;20073;-55
2022/05/27 01:41:30;;;;;;;9.57;2.45;;;;;;;;;;5036613;28;20087;-50
2022/05/27 01:44:00;;;;;;;12.63;2.50;;;;;;;;;;5041225;28;20025;-53
2022/05/27 01:46:32;;;;;;;11.30;2.40;;;;;;;;;;5042114;28;20028;-52
2022/05/27 01:49:22;;;;;;;10.93;2.70;;;;;;;;;;5041899;28;20026;-54
2022/05/27 01:52:09;;;;;;;12.00;3.10;;;;;;;;;;5027079;28;20029;-51
2022/05/27 01:54:39;;;;;;;13.98;3.35;;;;;;;;;;5033667;28;20037;-51
2022/05/27 01:57:09;;;;;;;8.38;2.63;;;;;;;;;;5021944;28;20466;-49
2022/05/27 01:59:45;;;;;;;13.27;2.97;;;;;;;;;;5040089;28;20045;-50
2022/05/27 02:02:14;;;;;;;11.13;2.70;;;;;;;;;;5042071;28;20049;-48
2022/05/27 02:04:55;;;;;;;11.57;2.88;;;;;;;;;;5042557;28;20047;-54
2022/05/27 02:07:43;;;;;;;12.45;2.80;;;;;;;;;;5038661;28;20049;-51
2022/05/27 02:10:13;;;;;;;9.27;2.95;;;;;;;;;;5045975;28;20033;-53
2022/05/27 02:12:43;;;;;;;11.90;2.53;;;;;;;;;;5033657;28;20033;-51
2022/05/27 02:15:17;;;;;;;9.98;2.47;;;;;;;;;;5044338;28;20083;-52
2022/05/27 02:17:51;;;;;;;10.82;3.33;;;;;;;;;;5039582;28;20045;-50
2022/05/27 02:20:22;;;;;;;11.13;3.42;;;;;;;;;;5040614;28;20025;-53
2022/05/27 02:22:57;;;;;;;12.40;3.60;;;;;;;;;;5041852;28;20029;-50
2022/05/27 02:25:27;;;;;;;10.48;2.92;;;;;;;;;;5037993;28;20025;-53
2022/05/27 02:28:00;;;;;;;12.00;2.97;;;;;;;;;;5039938;28;20060;-51
2022/05/27 02:30:32;;;;;;;8.75;2.83;;;;;;;;;;5038413;28;20031;-54
2022/05/27 02:35:50;;;;;;;5.95;2.72;;;;;;;;;;5036122;28;20150;-53
2022/05/27 02:38:17;;;;;;;10.73;3.80;;;;;;;;;;5036226;28;20021;-54
2022/05/27 02:40:57;;;;;;;6.93;2.80;;;;;;;;;;5035585;28;20463;-52
2022/05/27 02:43:33;;;;;;;11.40;2.97;;;;;;;;;;5036115;28;20052;-55
2022/05/27 02:46:04;;;;;;;9.45;3.25;;;;;;;;;;5035993;28;20602;-49
2022/05/27 02:48:37;;;;;;;11.38;3.63;;;;;;;;;;5040112;28;20076;-50
2022/05/27 02:51:08;;;;;;;10.20;3.35;;;;;;;;;;5037966;28;20060;-50
2022/05/27 02:53:53;;;;;;;12.13;3.50;;;;;;;;;;5033161;28;20088;-51
2022/05/27 02:56:28;;;;;;;11.70;3.35;;;;;;;;;;5051700;28;20033;-52
2022/05/27 02:58:56;;;;;;;9.00;3.15;;;;;;;;;;5050540;28;20061;-53
2022/05/27 03:01:23;;;;;;;11.30;3.35;;;;;;;;;;5051340;28;20033;-53
2022/05/27 03:03:50;;;;;;;12.57;3.95;;;;;;;;;;5051013;28;20471;-51
2022/05/27 03:06:17;;;;;;;8.23;3.25;;;;;;;;;;5051428;28;20067;-49
2022/05/27 03:08:50;;;;;;;7.05;3.22;;;;;;;;;;5050949;28;20025;-50
2022/05/27 03:11:21;;;;;;;11.55;3.72;;;;;;;;;;5033534;28;20033;-48
2022/05/27 03:13:52;;;;;;;7.07;2.95;;;;;;;;;;5050661;28;20041;-48
2022/05/27 03:16:37;;;;;;;9.38;3.42;;;;;;;;;;5051556;28;20028;-50
2022/05/27 03:19:14;;;;;;;8.88;3.15;;;;;;;;;;5051004;28;20029;-52
2022/05/27 03:21:54;;;;;;;10.77;3.47;;;;;;;;;;5050125;28;20044;-53
2022/05/27 03:24:44;;;;;;;9.18;2.78;;;;;;;;;;5050556;28;20083;-51
2022/05/27 03:27:14;;;;;;;10.80;3.25;;;;;;;;;;5005593;28;20523;-50
2022/05/27 03:29:51;;;;;;;9.30;3.08;;;;;;;;;;5033274;28;20238;-50
2022/05/27 03:32:24;;;;;;;10.18;3.30;;;;;;;;;;5051010;28;20099;-52
2022/05/27 03:34:53;;;;;;;10.13;3.67;;;;;;;;;;5050842;28;20565;-50
2022/05/27 03:37:31;;;;;;;6.60;3.40;;;;;;;;;;5050175;28;20479;-48
2022/05/27 03:40:08;;;;;;;9.50;3.20;;;;;;;;;;5050651;28;20040;-49
2022/05/27 03:42:36;;;;;;;7.78;3.03;;;;;;;;;;5051155;28;20025;-50
2022/05/27 03:45:05;;;;;;;8.52;3.40;;;;;;;;;;5051095;28;20620;-48
2022/05/27 03:47:32;;;;;;;6.75;3.40;;;;;;;;;;5050608;28;20031;-48
2022/05/27 03:49:59;;;;;;;8.63;3.40;;;;;;;;;;5050732;28;20036;-49
2022/05/27 03:52:29;;;;;;;7.63;3.33;;;;;;;;;;5050799;28;20033;-49
2022/05/27 03:54:56;;;;;;;7.32;3.00;;;;;;;;;;5050628;28;20028;-50
2022/05/27 03:57:23;;;;;;;7.57;3.58;;;;;;;;;;5053236;28;20017;-51
2022/05/27 03:59:50;;;;;;;6.00;2.92;;;;;;;;;;5054479;28;20510;-50
2022/05/27 04:02:17;;;;;;;9.05;2.88;;;;;;;;;;5054248;28;20108;-48
2022/05/27 04:04:44;;;;;;;7.22;3.63;;;;;;;;;;5054258;28;20103;-53
2022/05/27 04:07:11;;;;;;;6.82;3.08;;;;;;;;;;5053910;28;20040;-49
2022/05/27 04:09:38;;;;;;;7.63;3.13;;;;;;;;;;5054468;28;20104;-48
2022/05/27 04:12:06;;;;;;;6.25;2.92;;;;;;;;;;5054111;28;20025;-49
2022/05/27 04:14:32;;;;;;;5.35;3.10;;;;;;;;;;5053877;28;20074;-49
2022/05/27 04:19:45;;;;;;;8.82;3.28;;;;;;;;;;5054855;28;20040;-53
2022/05/27 04:22:12;;;;;;;7.47;3.20;;;;;;;;;;5053916;28;20025;-48
2022/05/27 04:24:39;;;;;;;7.57;2.70;;;;;;;;;;5054080;28;20096;-49
2022/05/27 04:27:11;;;;;;;7.60;3.08;;;;;;;;;;5054128;28;20546;-52
2022/05/27 04:29:39;;;;;;;8.52;3.08;;;;;;;;;;5054089;28;20021;-49
2022/05/27 04:32:06;;;;;;;7.00;3.08;;;;;;;;;;5052956;28;20514;-49
2022/05/27 04:34:33;;;;;;;8.75;3.22;;;;;;;;;;5053863;28;20090;-51
2022/05/27 04:37:00;;;;;;;6.82;2.90;;;;;;;;;;5053472;28;20043;-49
2022/05/27 04:39:27;;;;;;;5.30;2.63;;;;;;;;;;5053354;28;20475;-48
2022/05/27 04:41:54;;;;;;;7.55;2.95;;;;;;;;;;5053828;28;20036;-49
2022/05/27 04:44:21;;;;;;;9.07;2.90;;;;;;;;;;5053139;28;20025;-49
2022/05/27 04:46:48;;;;;;;7.10;3.05;;;;;;;;;;5053636;28;20593;-52
2022/05/27 04:52:01;;;;;;;6.63;2.60;;;;;;;;;;5053335;28;20048;-53
2022/05/27 04:54:28;;;;;;;5.50;2.67;;;;;;;;;;5052776;28;20048;-50
2022/05/27 04:56:56;;;;;;;6.80;2.50;;;;;;;;;;5053430;28;20029;-55
2022/05/27 04:59:23;;;;;;;6.35;2.80;;;;;;;;;;5032229;28;20064;-51
2022/05/27 05:01:50;;;;;;;7.30;2.78;;;;;;;;;;5033005;28;20482;-55
2022/05/27 05:04:17;;;;;;;4.68;2.58;;;;;;;;;;5033603;28;20021;-52
2022/05/27 05:06:44;;;;;;;6.78;2.63;;;;;;;;;;5032474;28;20053;-56
2022/05/27 05:09:12;;;;;;;5.47;2.45;;;;;;;;;;5033490;28;20028;-54
2022/05/27 05:11:39;;;;;;;6.05;2.88;;;;;;;;;;5032785;28;20034;-54
2022/05/27 05:14:06;;;;;;;4.65;2.58;;;;;;;;;;5033289;28;20029;-55
2022/05/27 05:16:33;;;;;;;6.05;2.88;;;;;;;;;;5032596;28;20033;-52
2022/05/27 05:19:00;;;;;;;6.13;2.75;;;;;;;;;;5033398;28;20029;-55
2022/05/27 05:21:27;;;;;;;6.85;2.55;;;;;;;;;;5032662;28;20034;-54
2022/05/27 05:23:54;;;;;;;6.30;2.53;;;;;;;;;;5032856;28;20029;-52
2022/05/27 05:26:22;;;;;;;6.13;2.78;;;;;;;;;;5032858;28;20056;-55
2022/05/27 05:28:49;;;;;;;3.65;2.28;;;;;;;;;;5032768;28;20021;-56
2022/05/27 05:31:17;;;;;;;7.55;2.85;;;;;;;;;;5032914;28;20074;-55
2022/05/27 05:33:44;;;;;;;5.30;2.60;;;;;;;;;;5031855;28;20203;-51
2022/05/27 05:36:11;;;;;;;5.57;2.35;;;;;;;;;;5032876;28;20083;-52
2022/05/27 05:38:39;;;;;;;5.75;2.88;;;;;;;;;;5032352;28;20025;-52
2022/05/27 05:41:07;;;;;;;4.35;2.35;;;;;;;;;;5032923;28;20124;-49
2022/05/27 05:43:34;;;;;;;5.93;2.83;;;;;;;;;;5032155;28;20049;-48
2022/05/27 05:46:01;;;;;;;5.60;2.95;;;;;;;;;;5032040;28;20108;-50
2022/05/27 05:48:28;;;;;;;5.30;2.53;;;;;;;;;;5032269;28;20505;-50
2022/05/27 05:50:55;;;;;;;6.50;3.08;;;;;;;;;;5032547;28;20036;-50
2022/05/27 05:53:22;;;;;;;4.20;2.50;;;;;;;;;;5030604;28;20038;-49
2022/05/27 05:55:49;;;;;;;8.52;2.85;;;;;;;;;;5032331;28;20022;-48
2022/05/27 05:58:16;;;;;;;5.60;2.97;;;;;;;;;;5038808;28;20045;-48
2022/05/27 06:00:43;;;;;;;6.93;2.65;;;;;;;;;;5052097;28;20017;-51
2022/05/27 06:03:11;;;;;;;4.55;2.70;;;;;;;;;;5051988;28;20486;-49
2022/05/27 06:05:40;;;;;;;7.57;3.05;;;;;;;;;;5052130;28;20037;-47
2022/05/27 06:08:07;;;;;;;4.68;2.22;;;;;;;;;;5051271;28;20033;-47
2022/05/27 06:10:34;;;;;;;6.32;2.55;;;;;;;;;;5052399;28;20108;-48
2022/05/27 06:13:01;;;;;;;4.60;2.50;;;;;;;;;;5051559;28;20460;-50
2022/05/27 06:15:28;;;;;;;4.18;2.13;;;;;;;;;;5051896;28;20021;-50
2022/05/27 06:17:55;;;;;;;5.93;2.78;;;;;;;;;;5052126;28;20028;-52
2022/05/27 06:20:22;;;;;;;7.00;2.45;;;;;;;;;;5050885;28;20107;-49
2022/05/27 06:22:49;;;;;;;5.35;2.15;;;;;;;;;;5051926;28;20061;-50
2022/05/27 06:25:16;;;;;;;3.75;2.10;;;;;;;;;;5051358;28;20450;-50
2022/05/27 06:27:43;;;;;;;3.47;2.20;;;;;;;;;;5051785;28;20021;-51
2022/05/27 06:35:43;;;;;;;5.85;2.30;;;;;;;;;;5051830;28;20402;-48
2022/05/27 06:38:10;;;;;;;5.38;2.25;;;;;;;;;;5051392;28;20024;-52
2022/05/27 06:40:37;;;;;;;3.58;2.30;;;;;;;;;;5051807;28;20025;-51
2022/05/27 06:43:04;;;;;;;3.22;2.13;;;;;;;;;;5051530;28;20059;-50
2022/05/27 06:45:31;;;;;;;5.57;2.20;;;;;;;;;;5050917;28;20450;-53
2022/05/27 06:47:58;;;;;;;3.28;2.08;;;;;;;;;;5034020;28;20033;-51
2022/05/27 06:50:25;;;;;;;4.18;2.30;;;;;;;;;;5051531;28;20056;-48
2022/05/27 06:52:53;;;;;;;3.60;2.17;;;;;;;;;;5051797;28;20094;-53
2022/05/27 06:55:20;;;;;;;7.20;2.42;;;;;;;;;;5050606;28;20056;-51
2022/05/27 06:57:47;;;;;;;3.67;1.92;;;;;;;;;;5050670;28;20040;-52
2022/05/27 07:00:14;;;;;;;5.03;2.13;;;;;;;;;;5051637;28;20025;-48
2022/05/27 07:02:41;;;;;;;4.05;2.40;;;;;;;;;;5051834;28;20086;-49
2022/05/27 07:05:09;;;;;;;4.85;2.08;;;;;;;;;;5050979;28;20025;-53
2022/05/27 07:07:36;;;;;;;3.33;1.90;;;;;;;;;;5051530;28;20079;-49
2022/05/27 07:10:03;;;;;;;5.22;2.17;;;;;;;;;;5050881;28;20036;-49
2022/05/27 07:12:30;;;;;;;4.55;2.17;;;;;;;;;;5033554;28;20037;-50
2022/05/27 07:14:57;;;;;;;3.47;2.25;;;;;;;;;;5051612;28;20029;-49
2022/05/27 07:17:24;;;;;;;3.33;1.63;;;;;;;;;;5050611;28;20398;-52
2022/05/27 07:19:51;;;;;;;4.07;2.40;;;;;;;;;;5032807;28;20037;-51
2022/05/27 07:22:18;;;;;;;3.80;1.80;;;;;;;;;;5051519;28;20092;-47
2022/05/27 07:24:45;;;;;;;3.83;2.03;;;;;;;;;;5051516;28;20409;-51
2022/05/27 07:27:12;;;;;;;3.88;2.28;;;;;;;;;;5050791;28;20490;-51
2022/05/27 07:29:39;;;;;;;2.80;1.67;;;;;;;;;;5051473;28;20104;-52
2022/05/27 07:32:06;;;;;;;3.63;1.98;;;;;;;;;;5052172;28;20025;-48
2022/05/27 07:34:33;;;;;;;3.55;1.65;;;;;;;;;;5054381;28;20079;-55
2022/05/27 07:37:01;;;;;;;3.30;1.73;;;;;;;;;;5053664;28;20032;-53
2022/05/27 07:39:28;;;;;;;5.07;1.80;;;;;;;;;;5054409;28;20021;-50
2022/05/27 07:41:55;;;;;;;3.50;1.60;;;;;;;;;;5055184;28;20025;-49
2022/05/27 07:44:22;;;;;;;4.38;2.10;;;;;;;;;;5054575;28;20037;-51
2022/05/27 07:46:53;;;;;;;3.47;1.83;;;;;;;;;;5054968;28;20364;-50
2022/05/27 07:49:20;;;;;;;3.53;1.88;;;;;;;;;;5054584;28;20024;-51
2022/05/27 07:51:47;;;;;;;3.60;1.83;;;;;;;;;;5054379;28;20029;-51
2022/05/27 07:54:14;;;;;;;3.72;1.90;;;;;;;;;;5054593;28;20394;-47
2022/05/27 07:56:42;;;;;;;2.53;1.70;;;;;;;;;;5054199;28;20029;-50
2022/05/27 07:59:09;;;;;;;3.75;1.63;;;;;;;;;;5054552;28;20060;-48
2022/05/27 08:01:37;;;;;;;2.58;1.63;;;;;;;;;;5053975;28;20025;-47
2022/05/27 08:04:05;;;;;;;4.38;1.98;;;;;;;;;;5054599;28;20051;-48
2022/05/27 08:06:32;;;;;;;3.10;1.48;;;;;;;;;;5054282;28;20056;-48
2022/05/27 08:08:59;;;;;;;3.08;1.50;;;;;;;;;;5054029;28;20028;-53
2022/05/27 08:11:26;;;;;;;3.90;1.73;;;;;;;;;;5053691;28;20066;-53
2022/05/27 08:13:55;;;;;;;2.50;1.50;;;;;;;;;;5054170;28;20506;-48
2022/05/27 08:16:22;;;;;;;2.50;1.65;;;;;;;;;;5053356;28;20036;-53
2022/05/27 08:18:49;;;;;;;3.35;1.63;;;;;;;;;;5054496;28;20478;-48
2022/05/27 08:21:16;;;;;;;2.92;1.65;;;;;;;;;;5053890;28;20077;-51
2022/05/27 08:23:43;;;;;;;2.55;1.45;;;;;;;;;;5054067;28;20037;-49
2022/05/27 08:26:11;;;;;;;4.10;1.63;;;;;;;;;;5053282;28;20487;-50
2022/05/27 08:28:38;;;;;;;3.28;1.75;;;;;;;;;;5054393;28;20028;-51
2022/05/27 08:31:05;;;;;;;3.25;1.77;;;;;;;;;;5053593;28;20036;-50
2022/05/27 08:39:06;;;;;;;2.58;1.60;;;;;;;;;;5053423;28;20044;-50
2022/05/27 08:41:33;;;;;;;2.95;1.63;;;;;;;;;;5053611;28;20037;-52
2022/05/27 08:44:06;;;;;;;2.97;1.55;;;;;;;;;;5053772;28;20033;-51
2022/05/27 08:46:48;;;;;;;3.38;1.67;;;;;;;;;;5053702;28;20024;-48
2022/05/27 08:49:24;;;;;;;4.22;2.05;;;;;;;;;;5053659;28;20075;-52
2022/05/27 08:51:57;;;;;;;4.07;1.90;;;;;;;;;;5053432;28;20025;-51
2022/05/27 08:54:28;;;;;;;2.80;1.58;;;;;;;;;;5053354;28;20483;-47
2022/05/27 08:59:47;;;;;;;2.40;1.65;;;;;;;;;;5052879;28;20411;-55
2022/05/27 09:02:19;;;;;;;3.42;1.83;;;;;;;;;;5053181;28;20029;-52
2022/05/27 09:05:02;;;;;;;2.85;1.38;;;;;;;;;;5052393;28;20025;-55
2022/05/27 09:07:40;;;;;;;3.65;1.52;;;;;;;;;;5052703;28;20025;-53
2022/05/27 09:10:13;;;;;;;2.63;1.40;;;;;;;;;;5053316;28;20029;-53
2022/05/27 09:12:53;;;;;;;3.40;1.65;;;;;;;;;;5053059;28;20033;-55
2022/05/27 09:15:39;;;;;;;3.03;1.38;;;;;;;;;;5052893;28;20430;-52
2022/05/27 09:18:18;;;;;;;3.20;1.70;;;;;;;;;;5035351;28;20033;-54
2022/05/27 09:20:45;;;;;;;3.05;1.40;;;;;;;;;;5052979;28;20457;-52
2022/05/27 09:23:20;;;;;;;3.60;1.85;;;;;;;;;;5052568;28;20178;-54
2022/05/27 09:26:21;;;;;;;3.17;1.40;;;;;;;;;;5052951;28;20079;-53
2022/05/27 09:28:48;;;;;;;3.35;1.50;;;;;;;;;;4952751;29;20074;-54
2022/05/27 09:31:16;;;;;;;2.10;1.30;;;;;;;;;;5033711;28;20490;-54
2022/05/27 09:33:45;;;;;;;2.55;1.35;;;;;;;;;;5052118;28;20040;-51
2022/05/27 09:36:20;;;;;;;4.68;1.50;;;;;;;;;;5052074;28;20037;-53
2022/05/27 09:38:50;;;;;;;5.35;1.58;;;;;;;;;;5052967;28;20394;-51
2022/05/27 09:41:35;;;;;;;4.65;1.63;;;;;;;;;;5052871;28;20536;-55
2022/05/27 09:44:21;;;;;;;2.58;1.33;;;;;;;;;;5052072;28;20029;-54
2022/05/27 09:46:48;;;;;;;5.55;1.77;;;;;;;;;;5052873;28;20483;-56
2022/05/27 09:49:15;;;;;;;3.67;1.50;;;;;;;;;;5051401;28;20029;-53
2022/05/27 09:51:42;;;;;;;4.10;1.63;;;;;;;;;;5052754;28;20033;-53
2022/05/27 09:54:27;;;;;;;4.03;1.80;;;;;;;;;;5051318;28;20045;-54
2022/05/27 09:57:16;;;;;;;2.88;1.50;;;;;;;;;;5052523;28;20025;-51
2022/05/27 09:59:53;;;;;;;7.10;1.50;;;;;;;;;;5034595;28;20533;-54
2022/05/27 10:02:20;;;;;;;4.82;1.45;;;;;;;;;;5051898;28;20090;-55
2022/05/27 10:04:51;;;;;;;5.15;1.35;;;;;;;;;;5033726;28;20048;-53
2022/05/27 10:07:25;;;;;;;4.05;2.00;;;;;;;;;;5051412;28;20151;-54
2022/05/27 10:09:52;;;;;;;6.13;1.73;;;;;;;;;;5052268;28;20513;-53
2022/05/27 10:12:32;;;;;;;3.95;1.92;;;;;;;;;;5033362;28;20039;-53
2022/05/27 10:15:00;;;;;;;3.83;1.92;;;;;;;;;;5051342;28;20493;-53
2022/05/27 10:17:35;;;;;;;5.03;1.90;;;;;;;;;;5052299;28;20055;-51
2022/05/27 10:20:22;;;;;;;4.32;1.65;;;;;;;;;;5052173;28;20033;-53
2022/05/27 10:23:03;;;;;;;5.95;2.00;;;;;;;;;;5051798;28;20044;-52
2022/05/27 10:25:32;;;;;;;3.83;2.00;;;;;;;;;;5051145;28;20029;-50
2022/05/27 10:27:59;;;;;;;8.10;2.50;;;;;;;;;;5051601;28;20041;-53
2022/05/27 10:30:30;;;;;;;3.70;1.98;;;;;;;;;;5051390;28;20041;-51
2022/05/27 10:33:12;;;;;;;4.93;2.20;;;;;;;;;;5050182;28;20031;-51
2022/05/27 10:35:39;;;;;;;3.92;2.30;;;;;;;;;;5051624;28;20078;-54
2022/05/27 10:38:12;;;;;;;4.63;2.38;;;;;;;;;;5051468;28;20024;-55
2022/05/27 10:40:45;;;;;;;4.63;2.33;;;;;;;;;;5050685;28;20055;-52
2022/05/27 10:43:12;;;;;;;7.63;2.45;;;;;;;;;;5049779;28;20116;-51
2022/05/27 10:45:40;;;;;;;8.90;2.58;;;;;;;;;;5049245;28;20028;-51
2022/05/27 10:48:25;;;;;;;5.63;2.70;;;;;;;;;;5050835;28;20109;-49
2022/05/27 10:50:52;;;;;;;8.98;2.35;;;;;;;;;;5051496;28;20059;-53
2022/05/27 10:53:37;;;;;;;8.15;2.85;;;;;;;;;;5051259;28;20104;-52
2022/05/27 10:56:33;;;;;;;5.70;2.63;;;;;;;;;;5051281;28;20033;-50
2022/05/27 11:02:24;;;;;;;8.32;3.00;;;;;;;;;;5051609;28;20124;-46
2022/05/27 11:05:12;;;;;;;7.25;3.72;;;;;;;;;;5051338;28;20021;-49
2022/05/27 11:07:42;;;;;;;7.80;3.08;;;;;;;;;;5055645;28;20055;-49
2022/05/27 11:10:12;;;;;;;7.88;3.53;;;;;;;;;;5055196;28;20052;-46
2022/05/27 11:15:40;;;;;;;6.38;3.25;;;;;;;;;;5054874;28;20039;-47
2022/05/27 11:18:25;;;;;;;9.30;3.20;;;;;;;;;;5054639;28;20395;-55
2022/05/27 11:20:55;;;;;;;15.52;4.22;;;;;;;;;;5055243;28;20044;-49
2022/05/27 11:23:28;;;;;;;18.35;3.80;;;;;;;;;;5054558;28;20037;-43
2022/05/27 11:26:06;;;;;;;18.50;3.85;;;;;;;;;;5054190;28;20439;-46
2022/05/27 11:28:36;;;;;;;31.92;7.35;;;;;;;;;;5054338;28;20036;-47
2022/05/27 11:31:32;;;;;;;675.58;29.98;;;;;;;;;;5034254;28;20087;-48
2022/05/27 11:34:09;;;;;;;56.90;7.97;;;;;;;;;;5024575;28;20127;-52
2022/05/27 11:36:47;;;;;;;128.45;13.52;;;;;;;;;;5050837;28;20025;-52
2022/05/27 11:39:34;;;;;;;87.25;9.52;;;;;;;;;;5053761;28;20542;-52
2022/05/27 11:42:19;;;;;;;41.33;7.68;;;;;;;;;;5052917;28;20112;-51
2022/05/27 11:45:06;;;;;;;62.95;14.85;;;;;;;;;;5049792;28;20033;-49
2022/05/27 11:47:46;;;;;;;36.53;8.48;;;;;;;;;;5051640;28;20032;-48
2022/05/27 11:50:25;;;;;;;528.67;40.70;;;;;;;;;;5047790;28;20478;-50
2022/05/27 11:53:18;;;;;;;216.32;21.77;;;;;;;;;;5052838;28;20669;-48
2022/05/27 11:56:08;;;;;;;89.72;11.65;;;;;;;;;;5029444;28;20406;-48
2022/05/27 11:58:43;;;;;;;83.30;9.75;;;;;;;;;;5051740;28;20033;-50
2022/05/27 12:01:16;;;;;;;75.00;11.20;;;;;;;;;;5052752;28;20039;-52
2022/05/27 12:03:49;;;;;;;77.85;12.82;;;;;;;;;;5041083;28;20487;-46
2022/05/27 12:06:20;;;;;;;67.07;10.57;;;;;;;;;;5033041;28;20121;-47
2022/05/27 12:08:52;;;;;;;68.97;9.65;;;;;;;;;;5041849;28;20029;-49
2022/05/27 12:11:25;;;;;;;59.45;10.45;;;;;;;;;;5033214;28;20071;-49
2022/05/27 12:13:55;;;;;;;59.72;9.70;;;;;;;;;;5033744;28;20077;-51
2022/05/27 12:16:27;;;;;;;56.60;10.32;;;;;;;;;;5044586;28;20476;-51
2022/05/27 12:19:02;;;;;;;53.13;10.13;;;;;;;;;;5053980;28;20590;-45
2022/05/27 12:21:33;;;;;;;57.45;9.80;;;;;;;;;;5052582;28;20028;-46
2022/05/27 12:24:04;;;;;;;51.85;10.20;;;;;;;;;;5053026;28;20051;-47
2022/05/27 12:26:33;;;;;;;60.92;10.88;;;;;;;;;;5044848;28;20025;-50
2022/05/27 12:29:03;;;;;;;52.08;9.57;;;;;;;;;;5044319;28;20033;-47
2022/05/27 12:31:31;;;;;;;76.57;12.32;;;;;;;;;;5052627;28;20040;-48
2022/05/27 12:33:58;;;;;;;48.05;12.02;;;;;;;;;;5053562;28;20044;-50
2022/05/27 12:36:30;;;;;;;54.28;11.07;;;;;;;;;;5052490;28;20104;-48
2022/05/27 12:38:58;;;;;;;49.33;10.80;;;;;;;;;;5051889;28;20116;-48
2022/05/27 12:41:39;;;;;;;54.15;12.70;;;;;;;;;;5045219;28;20048;-51
2022/05/27 12:44:22;;;;;;;44.88;11.00;;;;;;;;;;5041260;28;20032;-53
2022/05/27 12:46:55;;;;;;;40.92;10.73;;;;;;;;;;5036909;28;20051;-45
2022/05/27 12:49:33;;;;;;;48.40;10.95;;;;;;;;;;5044347;28;20061;-47
2022/05/27 12:52:01;;;;;;;38.10;8.98;;;;;;;;;;5049247;28;21035;-49
2022/05/27 12:54:43;;;;;;;33.75;9.52;;;;;;;;;;5047896;28;20069;-48
2022/05/27 13:02:44;;;;;;;32.88;9.02;;;;;;;;;;5031878;28;20119;-46
2022/05/27 13:05:14;;;;;;;35.72;9.88;;;;;;;;;;5031081;28;20499;-48
2022/05/27 13:07:41;;;;;;;42.85;9.02;;;;;;;;;;5039063;28;20040;-49
2022/05/27 13:10:18;;;;;;;37.75;9.48;;;;;;;;;;5048014;28;20041;-50
2022/05/27 13:12:48;;;;;;;45.78;9.35;;;;;;;;;;5071033;22;20049;-47
2022/05/27 13:15:22;;;;;;;41.55;8.20;;;;;;;;;;5052153;28;20040;-57
2022/05/27 13:18:08;;;;;;;40.72;9.05;;;;;;;;;;5049843;28;20498;-47
2022/05/27 13:20:53;;;;;;;37.15;8.63;;;;;;;;;;5053009;28;20506;-52
2022/05/27 13:23:22;;;;;;;40.67;8.85;;;;;;;;;;5047983;28;20679;-49
2022/05/27 13:26:09;;;;;;;38.75;9.35;;;;;;;;;;5051904;28;20059;-47
2022/05/27 13:28:40;;;;;;;40.33;9.07;;;;;;;;;;5003421;28;20045;-48
2022/05/27 13:31:12;;;;;;;46.25;8.52;;;;;;;;;;5051449;28;20025;-49
2022/05/27 13:33:42;;;;;;;47.28;8.65;;;;;;;;;;5052372;28;20051;-49
2022/05/27 13:36:19;;;;;;;34.50;8.23;;;;;;;;;;5052079;28;20025;-48
2022/05/27 13:38:51;;;;;;;40.15;7.75;;;;;;;;;;5052405;28;20029;-49
2022/05/27 13:41:18;;;;;;;41.03;8.43;;;;;;;;;;5051593;28;20029;-48
2022/05/27 13:43:48;;;;;;;37.45;8.00;;;;;;;;;;5052183;28;20039;-48
2022/05/27 13:46:18;;;;;;;46.38;7.63;;;;;;;;;;5051755;28;20040;-48
2022/05/27 13:48:49;;;;;;;52.42;8.20;;;;;;;;;;5052007;28;20029;-48
2022/05/27 13:51:18;;;;;;;37.25;6.78;;;;;;;;;;5052272;28;20364;-50
2022/05/27 13:53:45;;;;;;;36.28;6.82;;;;;;;;;;5051094;28;20116;-49
2022/05/27 13:56:17;;;;;;;32.53;6.15;;;;;;;;;;5051453;28;20029;-48
2022/05/27 13:58:52;;;;;;;33.10;5.82;;;;;;;;;;5052525;28;20025;-48
2022/05/27 14:01:21;;;;;;;29.95;6.13;;;;;;;;;;5051509;28;20750;-48
2022/05/27 14:03:50;;;;;;;28.77;6.00;;;;;;;;;;5051723;28;20032;-48
2022/05/27 14:06:28;;;;;;;28.58;5.57;;;;;;;;;;5051715;28;20548;-52
2022/05/27 14:08:55;;;;;;;31.35;5.32;;;;;;;;;;5051598;28;20181;-51
2022/05/27 14:11:33;;;;;;;24.80;4.72;;;;;;;;;;5051751;28;20052;-47
2022/05/27 14:14:02;;;;;;;22.23;4.75;;;;;;;;;;5050461;28;20094;-49
2022/05/27 14:16:32;;;;;;;20.60;4.65;;;;;;;;;;5051941;28;20450;-47
2022/05/27 14:19:12;;;;;;;23.27;4.60;;;;;;;;;;5051450;28;20044;-51
2022/05/27 14:24:27;;;;;;;21.33;4.72;;;;;;;;;;5051494;28;20544;-50
2022/05/27 14:26:54;;;;;;;22.48;4.53;;;;;;;;;;5051275;28;20428;-49
2022/05/27 14:29:22;;;;;;;19.05;4.45;;;;;;;;;;5050799;28;20025;-51
2022/05/27 14:31:49;;;;;;;25.80;4.63;;;;;;;;;;5051602;28;20029;-49
2022/05/27 14:34:18;;;;;;;25.13;4.20;;;;;;;;;;5050691;28;20118;-52
2022/05/27 14:37:04;;;;;;;14.93;3.90;;;;;;;;;;5052759;28;20056;-49
2022/05/27 14:39:31;;;;;;;17.23;3.58;;;;;;;;;;5052149;28;20378;-50
2022/05/27 14:42:00;;;;;;;21.92;3.47;;;;;;;;;;5039665;28;20025;-50
2022/05/27 14:44:29;;;;;;;43.63;5.55;;;;;;;;;;5031104;28;20029;-47
2022/05/27 14:47:03;;;;;;;44.70;6.35;;;;;;;;;;5043762;28;20108;-50
2022/05/27 14:49:31;;;;;;;38.70;5.65;;;;;;;;;;5050763;28;20048;-52
2022/05/27 14:51:59;;;;;;;45.30;6.43;;;;;;;;;;5050854;28;20036;-51
2022/05/27 14:54:26;;;;;;;38.40;6.03;;;;;;;;;;5050077;28;20048;-49
2022/05/27 14:57:11;;;;;;;49.28;7.15;;;;;;;;;;5050860;28;20045;-51
2022/05/27 14:59:39;;;;;;;49.47;7.13;;;;;;;;;;5050382;28;20021;-48
2022/05/27 15:02:06;;;;;;;48.67;6.97;;;;;;;;;;5050988;28;20108;-51
2022/05/27 15:04:33;;;;;;;43.35;7.78;;;;;;;;;;5050900;28;20029;-50
2022/05/27 15:07:17;;;;;;;36.22;6.10;;;;;;;;;;5049047;28;20386;-50
2022/05/27 15:09:45;;;;;;;38.97;6.38;;;;;;;;;;5051095;28;20029;-50
2022/05/27 15:12:23;;;;;;;28.15;6.28;;;;;;;;;;5050572;28;20052;-51
2022/05/27 15:14:50;;;;;;;32.90;5.97;;;;;;;;;;5050530;28;20494;-52
2022/05/27 15:17:27;;;;;;;32.40;5.28;;;;;;;;;;5051108;28;20490;-50
2022/05/27 15:20:00;;;;;;;23.85;5.47;;;;;;;;;;5050773;28;20548;-54
2022/05/27 15:22:28;;;;;;;32.15;5.03;;;;;;;;;;5050564;28;20036;-51
2022/05/27 15:24:57;;;;;;;28.48;5.40;;;;;;;;;;5051059;28;20029;-52
2022/05/27 15:33:17;;;;;;;30.80;5.88;;;;;;;;;;5050478;28;20090;-51
2022/05/27 15:35:49;;;;;;;24.23;5.45;;;;;;;;;;5050629;28;20052;-54
2022/05/27 15:38:17;;;;;;;26.45;6.13;;;;;;;;;;5050723;28;20029;-49
2022/05/27 15:40:45;;;;;;;19.83;5.25;;;;;;;;;;5050605;28;20033;-51
2022/05/27 15:43:14;;;;;;;23.13;5.50;;;;;;;;;;5050509;28;20064;-50
2022/05/27 15:45:42;;;;;;;35.97;5.97;;;;;;;;;;5050883;28;20470;-51
2022/05/27 15:48:09;;;;;;;28.02;5.35;;;;;;;;;;5049452;28;20090;-52
2022/05/27 15:50:36;;;;;;;25.65;5.70;;;;;;;;;;5048749;28;20501;-53